createdAt,value
2017-11-06T00:02:57.956Z,5.31
2017-11-06T00:09:01.422Z,5.46
2017-11-06T00:15:05.207Z,5.51
2017-11-06T00:21:08.994Z,5.49
2017-11-06T00:27:12.460Z,5.42
2017-11-06T00:33:15.897Z,5.36
2017-11-06T00:39:19.349Z,5.41
2017-11-06T00:45:22.817Z,5.46
2017-11-06T00:51:26.268Z,5.33
2017-11-06T00:57:30.494Z,5.16
2017-11-06T01:03:33.974Z,5.09
2017-11-06T01:09:37.710Z,5.04
2017-11-06T01:15:41.179Z,5.08
2017-11-06T01:21:44.641Z,5.23
2017-11-06T01:27:48.445Z,5.31
2017-11-06T01:33:52.562Z,5.17
2017-11-06T01:39:56.031Z,5.04
2017-11-06T01:45:59.828Z,4.99
2017-11-06T01:52:03.298Z,4.99
2017-11-06T01:58:07.112Z,5.03
2017-11-06T02:04:10.898Z,5.04
2017-11-06T02:10:14.645Z,5.18
2017-11-06T02:16:19.205Z,5.25
2017-11-06T02:22:22.995Z,5.22
2017-11-06T02:28:26.785Z,5.26
2017-11-06T02:34:30.577Z,5.33
2017-11-06T02:40:34.048Z,5.39
2017-11-06T02:46:37.507Z,5.45
2017-11-06T02:52:40.951Z,5.44
2017-11-06T02:58:44.724Z,5.43
2017-11-06T03:04:48.183Z,5.47
2017-11-06T03:10:51.990Z,5.40
2017-11-06T03:16:55.441Z,5.33
2017-11-06T03:22:58.888Z,5.44
2017-11-06T03:29:02.332Z,5.44
2017-11-06T03:35:06.163Z,5.54
2017-11-06T03:41:10.397Z,5.58
2017-11-06T03:47:14.935Z,5.67
2017-11-06T03:53:18.727Z,5.68
2017-11-06T03:59:22.517Z,5.66
2017-11-06T04:05:26.243Z,5.56
2017-11-06T04:11:29.902Z,5.30
2017-11-06T04:17:33.702Z,5.25
2017-11-06T04:23:37.491Z,5.32
2017-11-06T04:29:41.279Z,5.37
2017-11-06T04:35:44.985Z,5.51
2017-11-06T04:41:48.474Z,5.44
2017-11-06T04:47:51.953Z,5.52
2017-11-06T04:53:55.410Z,5.59
2017-11-06T04:59:58.860Z,5.57
2017-11-06T05:06:02.324Z,5.59
2017-11-06T05:12:06.073Z,5.62
2017-11-06T05:18:09.534Z,5.59
2017-11-06T05:24:12.989Z,5.54
2017-11-06T05:30:17.263Z,5.56
2017-11-06T05:36:20.755Z,5.59
2017-11-06T05:42:24.210Z,5.56
2017-11-06T05:48:27.648Z,5.49
2017-11-06T05:54:31.877Z,5.47
2017-11-06T06:00:35.627Z,5.45
2017-11-06T06:06:40.211Z,5.42
2017-11-06T06:12:43.754Z,5.39
2017-11-06T06:18:47.544Z,5.46
2017-11-06T06:24:51.766Z,5.47
2017-11-06T06:30:55.241Z,5.56
2017-11-06T06:36:58.692Z,5.55
2017-11-06T06:43:02.148Z,5.56
2017-11-06T06:49:05.866Z,5.48
2017-11-06T06:55:09.322Z,5.51
2017-11-06T07:01:12.767Z,5.58
2017-11-06T07:07:16.591Z,5.59
2017-11-06T07:13:20.149Z,5.63
2017-11-06T07:19:23.606Z,5.69
2017-11-06T07:25:27.967Z,5.63
2017-11-06T07:31:31.754Z,5.71
2017-11-06T07:37:35.541Z,5.78
2017-11-06T07:43:39.008Z,5.91
2017-11-06T07:49:42.614Z,5.98
2017-11-06T07:55:46.072Z,6.15
2017-11-06T08:01:49.888Z,6.23
2017-11-06T08:07:53.353Z,6.23
2017-11-06T08:13:57.169Z,6.23
2017-11-06T08:20:00.612Z,6.44
2017-11-06T08:26:04.830Z,6.46
2017-11-06T08:32:08.275Z,6.41
2017-11-06T08:38:12.519Z,6.42
2017-11-06T08:44:16.426Z,6.36
2017-11-06T08:50:19.890Z,6.46
2017-11-06T08:56:23.344Z,6.52
2017-11-06T09:02:27.911Z,6.74
2017-11-06T09:08:31.369Z,7.02
2017-11-06T09:14:35.193Z,6.90
2017-11-06T09:20:38.979Z,6.90
2017-11-06T09:26:42.434Z,6.73
2017-11-06T09:32:46.053Z,6.87
2017-11-06T09:38:49.506Z,6.92
2017-11-06T09:44:52.947Z,6.87
2017-11-06T09:50:56.709Z,6.88
2017-11-06T09:57:00.160Z,6.78
2017-11-06T10:03:03.614Z,6.88
2017-11-06T10:09:07.830Z,7.05
2017-11-06T10:15:12.052Z,7.35
2017-11-06T10:21:15.502Z,7.24
2017-11-06T10:27:19.265Z,7.69
2017-11-06T10:33:23.040Z,7.89
2017-11-06T10:39:26.511Z,7.88
2017-11-06T10:45:30.316Z,7.51
2017-11-06T10:51:33.780Z,7.76
2017-11-06T10:57:37.249Z,7.45
2017-11-06T11:03:40.702Z,7.29
2017-11-06T11:09:44.145Z,7.28
2017-11-06T11:15:47.594Z,7.41
2017-11-06T11:21:51.077Z,7.43
2017-11-06T11:27:55.303Z,7.47
2017-11-06T11:33:59.113Z,7.42
2017-11-06T11:40:02.912Z,7.34
2017-11-06T11:46:06.698Z,7.32
2017-11-06T11:52:10.159Z,7.50
2017-11-06T11:58:13.667Z,7.63
2017-11-06T12:04:17.445Z,7.54
2017-11-06T12:10:20.911Z,7.73
2017-11-06T12:16:24.724Z,7.92
2017-11-06T12:22:28.193Z,7.98
2017-11-06T12:28:31.670Z,8.04
2017-11-06T12:34:35.120Z,8.37
2017-11-06T12:40:38.847Z,8.38
2017-11-06T12:46:42.338Z,8.32
2017-11-06T12:52:45.788Z,8.06
2017-11-06T12:58:49.997Z,8.08
2017-11-06T13:04:54.227Z,8.12
2017-11-06T13:10:57.687Z,8.14
2017-11-06T13:17:01.148Z,8.16
2017-11-06T13:23:05.476Z,8.20
2017-11-06T13:29:08.970Z,7.97
2017-11-06T13:35:12.441Z,8.01
2017-11-06T13:41:15.926Z,8.02
2017-11-06T13:47:19.396Z,8.07
2017-11-06T13:53:23.973Z,7.95
2017-11-06T13:59:27.425Z,7.92
2017-11-06T14:05:30.881Z,7.83
2017-11-06T14:11:35.101Z,7.66
2017-11-06T14:17:38.560Z,7.82
2017-11-06T14:23:41.993Z,7.75
2017-11-06T14:29:45.456Z,7.81
2017-11-06T14:35:50.039Z,7.85
2017-11-06T14:41:53.502Z,7.67
2017-11-06T14:47:56.979Z,7.74
2017-11-06T14:54:00.449Z,7.61
2017-11-06T15:00:04.132Z,7.59
2017-11-06T15:06:07.588Z,7.53
2017-11-06T15:12:11.339Z,7.44
2017-11-06T15:18:14.794Z,7.30
2017-11-06T15:24:18.257Z,7.28
2017-11-06T15:30:21.735Z,7.16
2017-11-06T15:36:25.205Z,7.07
2017-11-06T15:42:29.536Z,7.07
2017-11-06T15:50:58.737Z,7.05
2017-11-06T15:57:02.526Z,6.98
2017-11-06T16:03:05.982Z,6.89
2017-11-06T16:19:52.787Z,6.68
2017-11-06T16:25:56.273Z,6.80
2017-11-06T16:32:00.057Z,6.75
2017-11-06T16:38:03.550Z,6.78
2017-11-06T16:50:51.955Z,6.77
2017-11-06T16:56:56.173Z,6.85
2017-11-06T17:02:59.724Z,6.79
2017-11-06T17:09:06.540Z,6.75
2017-11-06T17:15:11.313Z,6.85
2017-11-06T17:21:17.090Z,6.88
2017-11-06T17:27:20.747Z,6.87
2017-11-06T17:33:24.415Z,6.89
2017-11-06T17:39:29.195Z,6.79
2017-11-06T17:45:33.696Z,6.89
2017-11-06T17:51:37.320Z,6.86
2017-11-06T17:57:41.083Z,6.86
2017-11-06T18:03:44.709Z,6.85
2017-11-06T18:09:48.329Z,6.77
2017-11-06T18:15:52.088Z,6.78
2017-11-06T18:21:55.973Z,6.78
2017-11-06T18:27:59.559Z,6.76
2017-11-06T18:34:04.395Z,6.76
2017-11-06T18:40:08.789Z,6.75
2017-11-06T18:46:12.523Z,6.72
2017-11-06T18:52:17.217Z,6.68
2017-11-06T18:58:20.897Z,6.71
2017-11-06T19:04:24.525Z,6.77
2017-11-06T19:10:32.257Z,6.74
2017-11-06T19:16:38.140Z,6.61
2017-11-06T19:22:42.599Z,6.64
2017-11-06T19:28:46.690Z,6.68
2017-11-06T19:34:51.005Z,6.55
2017-11-06T19:40:54.688Z,6.59
2017-11-06T19:47:00.559Z,6.42
2017-11-06T19:53:06.178Z,6.18
2017-11-06T19:59:09.887Z,5.92
2017-11-06T20:05:15.437Z,5.67
2017-11-06T20:11:20.079Z,5.23
2017-11-06T20:17:25.532Z,4.99
2017-11-06T20:23:29.504Z,4.75
2017-11-06T20:29:33.072Z,4.58
2017-11-06T20:35:37.539Z,4.33
2017-11-06T20:41:42.193Z,4.15
2017-11-06T20:47:45.813Z,4.01
2017-11-06T20:53:50.328Z,3.91
2017-11-06T20:59:54.441Z,3.91
2017-11-06T21:06:00.675Z,3.83
2017-11-06T21:12:04.552Z,3.73
2017-11-06T21:18:08.907Z,3.67
2017-11-06T21:24:12.533Z,3.48
2017-11-06T21:36:52.243Z,3.39
2017-11-06T21:42:55.751Z,3.37
2017-11-06T21:49:00.073Z,3.34
2017-11-06T21:55:03.565Z,3.11
2017-11-06T22:01:07.042Z,3.04
2017-11-06T22:07:10.546Z,2.95
2017-11-06T22:13:14.043Z,2.93
2017-11-06T22:19:17.555Z,3.20
2017-11-06T22:25:21.818Z,2.90
2017-11-06T22:31:25.312Z,2.71
2017-11-06T22:37:28.810Z,2.78
2017-11-06T22:43:32.312Z,2.63
2017-11-06T22:49:35.788Z,2.56
2017-11-06T22:55:39.406Z,2.54
2017-11-06T23:01:43.669Z,2.33
2017-11-06T23:07:47.170Z,2.44
2017-11-06T23:13:50.665Z,2.25
2017-11-06T23:19:55.562Z,2.28
2017-11-06T23:25:59.066Z,2.17
2017-11-06T23:32:03.366Z,2.23
2017-11-06T23:38:07.637Z,2.35
2017-11-06T23:44:11.136Z,2.24
2017-11-06T23:50:14.638Z,2.14
2017-11-06T23:56:18.920Z,2.08
